sensor_id;sensor_type;location;lat;lon;timestamp;temperature;humidity
16198;DHT22;8206;51.440;6.914;2022-11-20T00:02:12;-2.30;1.00
16198;DHT22;8206;51.440;6.914;2022-11-20T00:04:40;-2.30;1.00
16198;DHT22;8206;51.440;6.914;2022-11-20T00:07:06;-2.30;1.00
16198;DHT22;8206;51.440;6.914;2022-11-20T00:09:33;-2.30;1.00
16198;DHT22;8206;51.440;6.914;2022-11-20T00:12:00;-2.20;1.00
16198;DHT22;8206;51.440;6.914;2022-11-20T00:14:26;-2.30;1.00
16198;DHT22;8206;51.440;6.914;2022-11-20T00:16:53;-2.30;1.00
16198;DHT22;8206;51.440;6.914;2022-11-20T00:19:21;-2.30;1.00
16198;DHT22;8206;51.440;6.914;2022-11-20T00:21:48;-2.40;1.00
16198;DHT22;8206;51.440;6.914;2022-11-20T00:24:17;-2.40;1.00
16198;DHT22;8206;51.440;6.914;2022-11-20T00:26:43;-2.40;1.00
16198;DHT22;8206;51.440;6.914;2022-11-20T00:29:10;-2.40;1.00
16198;DHT22;8206;51.440;6.914;2022-11-20T00:31:37;-2.40;1.00
16198;DHT22;8206;51.440;6.914;2022-11-20T00:34:04;-2.40;1.00
16198;DHT22;8206;51.440;6.914;2022-11-20T00:36:34;-2.40;1.00
16198;DHT22;8206;51.440;6.914;2022-11-20T00:39:00;-2.40;1.00
16198;DHT22;8206;51.440;6.914;2022-11-20T00:41:29;-2.40;1.00
16198;DHT22;8206;51.440;6.914;2022-11-20T00:43:56;-2.40;1.00
16198;DHT22;8206;51.440;6.914;2022-11-20T00:46:24;-2.40;1.00
16198;DHT22;8206;51.440;6.914;2022-11-20T00:48:52;-2.40;1.00
16198;DHT22;8206;51.440;6.914;2022-11-20T00:51:20;-2.40;1.00
16198;DHT22;8206;51.440;6.914;2022-11-20T00:53:49;-2.40;1.00
16198;DHT22;8206;51.440;6.914;2022-11-20T00:56:17;-2.40;1.00
16198;DHT22;8206;51.440;6.914;2022-11-20T00:58:46;-2.30;1.00
16198;DHT22;8206;51.440;6.914;2022-11-20T01:01:15;-2.20;1.00
16198;DHT22;8206;51.440;6.914;2022-11-20T01:03:43;-2.00;1.00
16198;DHT22;8206;51.440;6.914;2022-11-20T01:06:12;-1.90;1.00
16198;DHT22;8206;51.440;6.914;2022-11-20T01:08:39;-1.70;1.00
16198;DHT22;8206;51.440;6.914;2022-11-20T01:11:09;-1.60;1.00
16198;DHT22;8206;51.440;6.914;2022-11-20T01:13:36;-1.60;1.00
16198;DHT22;8206;51.440;6.914;2022-11-20T01:16:04;-1.60;1.00
16198;DHT22;8206;51.440;6.914;2022-11-20T01:18:31;-1.70;1.00
16198;DHT22;8206;51.440;6.914;2022-11-20T01:21:01;-1.80;1.00
16198;DHT22;8206;51.440;6.914;2022-11-20T01:23:31;-1.80;1.00
16198;DHT22;8206;51.440;6.914;2022-11-20T01:26:00;-1.80;1.00
16198;DHT22;8206;51.440;6.914;2022-11-20T01:28:28;-1.90;1.00
16198;DHT22;8206;51.440;6.914;2022-11-20T01:30:55;-2.00;1.00
16198;DHT22;8206;51.440;6.914;2022-11-20T01:33:22;-2.10;1.00
16198;DHT22;8206;51.440;6.914;2022-11-20T01:35:49;-2.10;1.00
16198;DHT22;8206;51.440;6.914;2022-11-20T01:38:16;-2.20;1.00
16198;DHT22;8206;51.440;6.914;2022-11-20T01:40:43;-2.20;1.00
16198;DHT22;8206;51.440;6.914;2022-11-20T01:43:13;-2.30;1.00
16198;DHT22;8206;51.440;6.914;2022-11-20T01:46:04;-2.40;1.00
16198;DHT22;8206;51.440;6.914;2022-11-20T01:48:38;-2.40;1.00
16198;DHT22;8206;51.440;6.914;2022-11-20T01:51:14;-2.40;1.00
16198;DHT22;8206;51.440;6.914;2022-11-20T01:53:43;-2.30;1.00
16198;DHT22;8206;51.440;6.914;2022-11-20T01:56:11;-2.20;1.00
16198;DHT22;8206;51.440;6.914;2022-11-20T01:58:43;-2.00;1.00
16198;DHT22;8206;51.440;6.914;2022-11-20T02:01:13;-1.90;1.00
16198;DHT22;8206;51.440;6.914;2022-11-20T02:03:41;-1.70;1.00
16198;DHT22;8206;51.440;6.914;2022-11-20T02:06:12;-1.70;1.00
16198;DHT22;8206;51.440;6.914;2022-11-20T02:08:41;-1.50;1.00
16198;DHT22;8206;51.440;6.914;2022-11-20T02:11:09;-1.40;1.00
16198;DHT22;8206;51.440;6.914;2022-11-20T02:13:36;-1.30;1.00
16198;DHT22;8206;51.440;6.914;2022-11-20T02:16:19;-1.20;1.00
16198;DHT22;8206;51.440;6.914;2022-11-20T02:18:46;-1.10;1.00
16198;DHT22;8206;51.440;6.914;2022-11-20T02:24:07;-1.10;1.00
16198;DHT22;8206;51.440;6.914;2022-11-20T02:26:48;-1.10;1.00
16198;DHT22;8206;51.440;6.914;2022-11-20T02:29:19;-1.10;1.00
16198;DHT22;8206;51.440;6.914;2022-11-20T02:31:48;-1.10;1.00
16198;DHT22;8206;51.440;6.914;2022-11-20T02:34:15;-1.10;1.00
16198;DHT22;8206;51.440;6.914;2022-11-20T02:36:42;-1.10;1.00
16198;DHT22;8206;51.440;6.914;2022-11-20T02:39:13;-1.10;1.00
16198;DHT22;8206;51.440;6.914;2022-11-20T02:41:42;-1.10;1.00
16198;DHT22;8206;51.440;6.914;2022-11-20T02:44:09;-1.10;1.00
16198;DHT22;8206;51.440;6.914;2022-11-20T02:46:36;-1.00;1.00
16198;DHT22;8206;51.440;6.914;2022-11-20T02:49:04;-1.00;1.00
16198;DHT22;8206;51.440;6.914;2022-11-20T02:51:31;-1.00;1.00
16198;DHT22;8206;51.440;6.914;2022-11-20T02:53:57;-0.90;1.00
16198;DHT22;8206;51.440;6.914;2022-11-20T02:56:26;-0.90;1.00
16198;DHT22;8206;51.440;6.914;2022-11-20T02:58:53;-0.90;1.00
16198;DHT22;8206;51.440;6.914;2022-11-20T03:01:19;-0.80;1.00
16198;DHT22;8206;51.440;6.914;2022-11-20T03:03:46;-0.70;1.00
16198;DHT22;8206;51.440;6.914;2022-11-20T03:06:14;-0.60;1.00
16198;DHT22;8206;51.440;6.914;2022-11-20T03:08:41;-0.50;1.00
16198;DHT22;8206;51.440;6.914;2022-11-20T03:11:08;-0.50;1.00
16198;DHT22;8206;51.440;6.914;2022-11-20T03:13:36;-0.40;1.00
16198;DHT22;8206;51.440;6.914;2022-11-20T03:16:08;-0.40;1.00
16198;DHT22;8206;51.440;6.914;2022-11-20T03:18:35;-0.40;1.00
16198;DHT22;8206;51.440;6.914;2022-11-20T03:21:02;-0.40;1.00
16198;DHT22;8206;51.440;6.914;2022-11-20T03:23:30;-0.30;1.00
16198;DHT22;8206;51.440;6.914;2022-11-20T03:26:11;-0.30;1.00
16198;DHT22;8206;51.440;6.914;2022-11-20T03:28:40;-0.20;1.00
16198;DHT22;8206;51.440;6.914;2022-11-20T03:31:08;-0.20;1.00
16198;DHT22;8206;51.440;6.914;2022-11-20T03:33:35;-0.20;1.00
16198;DHT22;8206;51.440;6.914;2022-11-20T03:36:04;-0.20;1.00
16198;DHT22;8206;51.440;6.914;2022-11-20T03:38:31;-0.20;1.00
16198;DHT22;8206;51.440;6.914;2022-11-20T03:40:59;-0.20;1.00
16198;DHT22;8206;51.440;6.914;2022-11-20T03:43:27;-0.10;1.00
16198;DHT22;8206;51.440;6.914;2022-11-20T03:45:55;-0.20;1.00
16198;DHT22;8206;51.440;6.914;2022-11-20T03:48:22;-0.10;1.00
16198;DHT22;8206;51.440;6.914;2022-11-20T03:50:49;-0.10;1.00
16198;DHT22;8206;51.440;6.914;2022-11-20T03:53:16;-0.10;1.00
16198;DHT22;8206;51.440;6.914;2022-11-20T03:55:43;0.00;1.00
16198;DHT22;8206;51.440;6.914;2022-11-20T03:58:10;0.00;1.00
16198;DHT22;8206;51.440;6.914;2022-11-20T04:00:37;0.00;1.00
16198;DHT22;8206;51.440;6.914;2022-11-20T04:03:05;0.10;1.00
16198;DHT22;8206;51.440;6.914;2022-11-20T04:05:33;0.10;1.00
16198;DHT22;8206;51.440;6.914;2022-11-20T04:08:00;0.20;1.00
16198;DHT22;8206;51.440;6.914;2022-11-20T04:10:26;0.20;1.00
16198;DHT22;8206;51.440;6.914;2022-11-20T04:12:53;0.30;1.00
16198;DHT22;8206;51.440;6.914;2022-11-20T04:15:20;0.30;1.00
16198;DHT22;8206;51.440;6.914;2022-11-20T04:17:47;0.40;1.00
16198;DHT22;8206;51.440;6.914;2022-11-20T04:20:15;0.30;1.00
16198;DHT22;8206;51.440;6.914;2022-11-20T04:22:42;0.30;1.00
16198;DHT22;8206;51.440;6.914;2022-11-20T04:25:08;0.30;1.00
16198;DHT22;8206;51.440;6.914;2022-11-20T04:27:35;0.30;1.00
16198;DHT22;8206;51.440;6.914;2022-11-20T04:30:03;0.30;1.00
16198;DHT22;8206;51.440;6.914;2022-11-20T04:32:29;0.30;1.00
16198;DHT22;8206;51.440;6.914;2022-11-20T04:34:56;0.30;1.00
16198;DHT22;8206;51.440;6.914;2022-11-20T04:37:24;0.20;1.00
16198;DHT22;8206;51.440;6.914;2022-11-20T04:39:51;0.10;1.00
16198;DHT22;8206;51.440;6.914;2022-11-20T04:42:18;0.10;1.00
16198;DHT22;8206;51.440;6.914;2022-11-20T04:44:56;0.00;1.00
16198;DHT22;8206;51.440;6.914;2022-11-20T04:47:23;0.00;1.00
16198;DHT22;8206;51.440;6.914;2022-11-20T04:49:50;0.00;1.00
16198;DHT22;8206;51.440;6.914;2022-11-20T04:52:17;0.10;1.00
16198;DHT22;8206;51.440;6.914;2022-11-20T04:54:45;0.20;1.00
16198;DHT22;8206;51.440;6.914;2022-11-20T04:57:13;0.20;1.00
16198;DHT22;8206;51.440;6.914;2022-11-20T04:59:41;0.20;1.00
16198;DHT22;8206;51.440;6.914;2022-11-20T05:02:07;0.30;1.00
16198;DHT22;8206;51.440;6.914;2022-11-20T05:04:34;0.40;1.00
16198;DHT22;8206;51.440;6.914;2022-11-20T05:07:01;0.40;1.00
16198;DHT22;8206;51.440;6.914;2022-11-20T05:09:28;0.50;1.00
16198;DHT22;8206;51.440;6.914;2022-11-20T05:11:56;0.60;1.00
16198;DHT22;8206;51.440;6.914;2022-11-20T05:14:22;0.70;1.00
16198;DHT22;8206;51.440;6.914;2022-11-20T05:16:49;0.70;1.00
16198;DHT22;8206;51.440;6.914;2022-11-20T05:19:16;0.80;1.00
16198;DHT22;8206;51.440;6.914;2022-11-20T05:21:43;0.80;1.00
16198;DHT22;8206;51.440;6.914;2022-11-20T05:24:10;0.80;1.00
16198;DHT22;8206;51.440;6.914;2022-11-20T05:26:36;0.90;1.00
16198;DHT22;8206;51.440;6.914;2022-11-20T05:29:04;0.90;1.00
16198;DHT22;8206;51.440;6.914;2022-11-20T05:31:31;0.90;1.00
16198;DHT22;8206;51.440;6.914;2022-11-20T05:33:58;1.00;1.00
16198;DHT22;8206;51.440;6.914;2022-11-20T05:36:25;1.00;1.00
16198;DHT22;8206;51.440;6.914;2022-11-20T05:38:51;1.00;1.00
16198;DHT22;8206;51.440;6.914;2022-11-20T05:41:19;1.10;1.00
16198;DHT22;8206;51.440;6.914;2022-11-20T05:43:48;1.10;1.00
16198;DHT22;8206;51.440;6.914;2022-11-20T05:46:18;1.10;1.00
16198;DHT22;8206;51.440;6.914;2022-11-20T05:48:45;1.10;1.00
16198;DHT22;8206;51.440;6.914;2022-11-20T05:51:14;1.20;1.00
16198;DHT22;8206;51.440;6.914;2022-11-20T05:53:41;1.10;1.00
16198;DHT22;8206;51.440;6.914;2022-11-20T05:56:10;1.20;1.00
16198;DHT22;8206;51.440;6.914;2022-11-20T05:58:38;1.10;1.00
16198;DHT22;8206;51.440;6.914;2022-11-20T06:01:06;1.10;1.00
16198;DHT22;8206;51.440;6.914;2022-11-20T06:03:34;1.00;1.00
16198;DHT22;8206;51.440;6.914;2022-11-20T06:06:02;1.00;1.00
16198;DHT22;8206;51.440;6.914;2022-11-20T06:08:29;1.00;1.00
16198;DHT22;8206;51.440;6.914;2022-11-20T06:10:56;0.90;1.00
16198;DHT22;8206;51.440;6.914;2022-11-20T06:13:23;0.90;1.00
16198;DHT22;8206;51.440;6.914;2022-11-20T06:15:49;0.80;1.00
16198;DHT22;8206;51.440;6.914;2022-11-20T06:18:16;0.80;1.00
16198;DHT22;8206;51.440;6.914;2022-11-20T06:20:45;0.70;1.00
16198;DHT22;8206;51.440;6.914;2022-11-20T06:23:12;0.70;1.00
16198;DHT22;8206;51.440;6.914;2022-11-20T06:25:40;0.60;1.00
16198;DHT22;8206;51.440;6.914;2022-11-20T06:28:07;0.60;1.00
16198;DHT22;8206;51.440;6.914;2022-11-20T06:30:34;0.60;1.00
16198;DHT22;8206;51.440;6.914;2022-11-20T06:33:01;0.60;1.00
16198;DHT22;8206;51.440;6.914;2022-11-20T06:35:27;0.70;1.00
16198;DHT22;8206;51.440;6.914;2022-11-20T06:37:56;0.70;1.00
16198;DHT22;8206;51.440;6.914;2022-11-20T06:40:23;0.70;1.00
16198;DHT22;8206;51.440;6.914;2022-11-20T06:42:50;0.70;1.00
16198;DHT22;8206;51.440;6.914;2022-11-20T06:45:17;0.70;1.00
16198;DHT22;8206;51.440;6.914;2022-11-20T06:47:43;0.70;1.00
16198;DHT22;8206;51.440;6.914;2022-11-20T06:50:10;0.60;1.00
16198;DHT22;8206;51.440;6.914;2022-11-20T06:52:37;0.60;1.00
16198;DHT22;8206;51.440;6.914;2022-11-20T06:55:06;0.60;1.00
16198;DHT22;8206;51.440;6.914;2022-11-20T06:57:33;0.50;1.00
16198;DHT22;8206;51.440;6.914;2022-11-20T06:59:59;0.50;1.00
16198;DHT22;8206;51.440;6.914;2022-11-20T07:02:26;0.50;1.00
16198;DHT22;8206;51.440;6.914;2022-11-20T07:04:53;0.50;1.00
16198;DHT22;8206;51.440;6.914;2022-11-20T07:07:20;0.50;1.00
16198;DHT22;8206;51.440;6.914;2022-11-20T07:09:46;0.50;1.00
16198;DHT22;8206;51.440;6.914;2022-11-20T07:12:14;0.60;1.00
16198;DHT22;8206;51.440;6.914;2022-11-20T07:14:41;0.60;1.00
16198;DHT22;8206;51.440;6.914;2022-11-20T07:17:08;0.60;1.00
16198;DHT22;8206;51.440;6.914;2022-11-20T07:19:34;0.70;1.00
16198;DHT22;8206;51.440;6.914;2022-11-20T07:22:01;0.70;1.00
16198;DHT22;8206;51.440;6.914;2022-11-20T07:24:28;0.70;1.00
16198;DHT22;8206;51.440;6.914;2022-11-20T07:26:55;0.80;1.00
16198;DHT22;8206;51.440;6.914;2022-11-20T07:29:23;0.80;1.00
16198;DHT22;8206;51.440;6.914;2022-11-20T07:31:50;0.90;1.00
16198;DHT22;8206;51.440;6.914;2022-11-20T07:34:16;0.90;1.00
16198;DHT22;8206;51.440;6.914;2022-11-20T07:36:43;1.00;1.00
16198;DHT22;8206;51.440;6.914;2022-11-20T07:39:10;1.00;1.00
16198;DHT22;8206;51.440;6.914;2022-11-20T07:41:36;1.00;1.00
16198;DHT22;8206;51.440;6.914;2022-11-20T07:44:03;1.00;1.00
16198;DHT22;8206;51.440;6.914;2022-11-20T07:46:32;1.00;1.00
16198;DHT22;8206;51.440;6.914;2022-11-20T07:48:58;1.00;1.00
16198;DHT22;8206;51.440;6.914;2022-11-20T07:51:25;0.90;1.00
16198;DHT22;8206;51.440;6.914;2022-11-20T07:53:52;0.80;1.00
16198;DHT22;8206;51.440;6.914;2022-11-20T07:56:20;0.60;1.00
16198;DHT22;8206;51.440;6.914;2022-11-20T07:58:47;0.70;1.00
16198;DHT22;8206;51.440;6.914;2022-11-20T08:01:13;0.80;1.00
16198;DHT22;8206;51.440;6.914;2022-11-20T08:03:41;0.90;1.00
16198;DHT22;8206;51.440;6.914;2022-11-20T08:06:08;0.90;1.00
16198;DHT22;8206;51.440;6.914;2022-11-20T08:08:35;0.90;1.00
16198;DHT22;8206;51.440;6.914;2022-11-20T08:11:04;0.90;1.00
16198;DHT22;8206;51.440;6.914;2022-11-20T08:13:48;1.00;1.00
16198;DHT22;8206;51.440;6.914;2022-11-20T08:16:32;1.10;1.00
16198;DHT22;8206;51.440;6.914;2022-11-20T08:19:00;1.20;1.00
16198;DHT22;8206;51.440;6.914;2022-11-20T08:21:27;1.30;1.00
16198;DHT22;8206;51.440;6.914;2022-11-20T08:23:54;1.30;1.00
16198;DHT22;8206;51.440;6.914;2022-11-20T08:26:21;1.30;1.00
16198;DHT22;8206;51.440;6.914;2022-11-20T08:28:48;1.30;1.00
16198;DHT22;8206;51.440;6.914;2022-11-20T08:31:14;1.30;1.00
16198;DHT22;8206;51.440;6.914;2022-11-20T08:33:41;1.50;1.00
16198;DHT22;8206;51.440;6.914;2022-11-20T08:36:09;1.70;1.00
16198;DHT22;8206;51.440;6.914;2022-11-20T08:38:36;1.90;1.00
16198;DHT22;8206;51.440;6.914;2022-11-20T08:41:04;2.10;1.00
16198;DHT22;8206;51.440;6.914;2022-11-20T08:43:49;2.40;1.00
16198;DHT22;8206;51.440;6.914;2022-11-20T08:46:16;2.60;1.00
16198;DHT22;8206;51.440;6.914;2022-11-20T08:48:43;2.70;1.00
16198;DHT22;8206;51.440;6.914;2022-11-20T08:51:13;2.80;1.00
16198;DHT22;8206;51.440;6.914;2022-11-20T08:53:40;3.00;1.00
16198;DHT22;8206;51.440;6.914;2022-11-20T08:56:07;3.10;1.00
16198;DHT22;8206;51.440;6.914;2022-11-20T08:58:35;3.30;1.00
16198;DHT22;8206;51.440;6.914;2022-11-20T09:01:02;3.40;1.00
16198;DHT22;8206;51.440;6.914;2022-11-20T09:03:29;3.50;1.00
16198;DHT22;8206;51.440;6.914;2022-11-20T09:05:57;3.60;1.00
16198;DHT22;8206;51.440;6.914;2022-11-20T09:08:27;3.80;1.00
16198;DHT22;8206;51.440;6.914;2022-11-20T09:10:54;3.90;1.00
16198;DHT22;8206;51.440;6.914;2022-11-20T09:13:22;4.00;1.00
16198;DHT22;8206;51.440;6.914;2022-11-20T09:15:53;4.20;1.00
16198;DHT22;8206;51.440;6.914;2022-11-20T09:18:20;4.00;1.00
16198;DHT22;8206;51.440;6.914;2022-11-20T09:20:47;3.90;1.00
16198;DHT22;8206;51.440;6.914;2022-11-20T09:23:14;3.90;1.00
16198;DHT22;8206;51.440;6.914;2022-11-20T09:25:42;3.90;1.00
16198;DHT22;8206;51.440;6.914;2022-11-20T09:28:09;3.90;1.00
16198;DHT22;8206;51.440;6.914;2022-11-20T09:30:36;4.00;1.00
16198;DHT22;8206;51.440;6.914;2022-11-20T09:33:04;4.00;1.00
16198;DHT22;8206;51.440;6.914;2022-11-20T09:35:31;4.00;1.00
16198;DHT22;8206;51.440;6.914;2022-11-20T09:37:57;4.00;1.00
16198;DHT22;8206;51.440;6.914;2022-11-20T09:40:27;4.10;1.00
16198;DHT22;8206;51.440;6.914;2022-11-20T09:42:58;4.10;1.00
16198;DHT22;8206;51.440;6.914;2022-11-20T09:45:36;4.00;1.00
16198;DHT22;8206;51.440;6.914;2022-11-20T09:51:04;3.80;1.00
16198;DHT22;8206;51.440;6.914;2022-11-20T09:53:42;3.50;1.00
16198;DHT22;8206;51.440;6.914;2022-11-20T09:56:12;3.50;1.00
16198;DHT22;8206;51.440;6.914;2022-11-20T09:58:43;3.40;1.00
16198;DHT22;8206;51.440;6.914;2022-11-20T10:01:13;3.30;1.00
16198;DHT22;8206;51.440;6.914;2022-11-20T10:03:51;3.30;1.00
16198;DHT22;8206;51.440;6.914;2022-11-20T10:06:23;3.20;1.00
16198;DHT22;8206;51.440;6.914;2022-11-20T10:08:58;3.30;1.00
16198;DHT22;8206;51.440;6.914;2022-11-20T10:11:35;3.30;1.00
16198;DHT22;8206;51.440;6.914;2022-11-20T10:14:16;3.30;1.00
16198;DHT22;8206;51.440;6.914;2022-11-20T10:16:56;3.30;1.00
16198;DHT22;8206;51.440;6.914;2022-11-20T10:19:40;3.20;1.00
16198;DHT22;8206;51.440;6.914;2022-11-20T10:22:20;3.40;1.00
16198;DHT22;8206;51.440;6.914;2022-11-20T10:24:55;3.60;1.00
16198;DHT22;8206;51.440;6.914;2022-11-20T10:27:51;3.80;1.00
16198;DHT22;8206;51.440;6.914;2022-11-20T10:30:23;4.00;1.00
16198;DHT22;8206;51.440;6.914;2022-11-20T10:32:53;4.10;1.00
16198;DHT22;8206;51.440;6.914;2022-11-20T10:35:22;4.10;1.00
16198;DHT22;8206;51.440;6.914;2022-11-20T10:37:55;4.30;1.00
16198;DHT22;8206;51.440;6.914;2022-11-20T10:40:29;4.40;1.00
16198;DHT22;8206;51.440;6.914;2022-11-20T10:43:01;4.60;1.00
16198;DHT22;8206;51.440;6.914;2022-11-20T10:45:45;4.80;1.00
16198;DHT22;8206;51.440;6.914;2022-11-20T10:48:16;4.90;1.00
16198;DHT22;8206;51.440;6.914;2022-11-20T10:51:07;5.00;1.00
16198;DHT22;8206;51.440;6.914;2022-11-20T10:53:48;5.10;1.00
16198;DHT22;8206;51.440;6.914;2022-11-20T10:56:20;5.10;1.00
16198;DHT22;8206;51.440;6.914;2022-11-20T10:59:00;5.00;1.00
16198;DHT22;8206;51.440;6.914;2022-11-20T11:01:30;5.10;1.00
16198;DHT22;8206;51.440;6.914;2022-11-20T11:03:57;5.40;1.00
16198;DHT22;8206;51.440;6.914;2022-11-20T11:06:32;5.40;1.00
16198;DHT22;8206;51.440;6.914;2022-11-20T11:09:08;5.60;1.00
16198;DHT22;8206;51.440;6.914;2022-11-20T11:11:35;5.80;1.00
16198;DHT22;8206;51.440;6.914;2022-11-20T11:14:05;5.80;1.00
16198;DHT22;8206;51.440;6.914;2022-11-20T11:16:34;5.90;1.00
16198;DHT22;8206;51.440;6.914;2022-11-20T11:19:05;6.10;1.00
16198;DHT22;8206;51.440;6.914;2022-11-20T11:21:32;6.10;1.00
16198;DHT22;8206;51.440;6.914;2022-11-20T11:24:01;6.30;1.00
16198;DHT22;8206;51.440;6.914;2022-11-20T11:26:28;6.30;1.00
16198;DHT22;8206;51.440;6.914;2022-11-20T11:28:56;6.10;1.00
16198;DHT22;8206;51.440;6.914;2022-11-20T11:31:24;6.00;1.00
16198;DHT22;8206;51.440;6.914;2022-11-20T11:34:04;5.90;1.00
16198;DHT22;8206;51.440;6.914;2022-11-20T11:36:32;5.90;1.00
16198;DHT22;8206;51.440;6.914;2022-11-20T11:39:00;5.90;1.00
16198;DHT22;8206;51.440;6.914;2022-11-20T11:41:31;5.90;1.00
16198;DHT22;8206;51.440;6.914;2022-11-20T11:44:12;5.80;1.00
16198;DHT22;8206;51.440;6.914;2022-11-20T11:46:59;5.80;1.00
16198;DHT22;8206;51.440;6.914;2022-11-20T11:49:27;5.70;1.00
16198;DHT22;8206;51.440;6.914;2022-11-20T11:52:01;5.80;1.00
16198;DHT22;8206;51.440;6.914;2022-11-20T11:54:32;5.90;1.00
16198;DHT22;8206;51.440;6.914;2022-11-20T11:57:05;5.90;1.00
16198;DHT22;8206;51.440;6.914;2022-11-20T11:59:44;5.90;1.00
16198;DHT22;8206;51.440;6.914;2022-11-20T12:02:24;6.10;1.00
16198;DHT22;8206;51.440;6.914;2022-11-20T12:04:58;6.10;1.00
16198;DHT22;8206;51.440;6.914;2022-11-20T12:07:35;6.00;1.00
16198;DHT22;8206;51.440;6.914;2022-11-20T12:10:13;5.90;1.00
16198;DHT22;8206;51.440;6.914;2022-11-20T12:12:43;5.90;1.00
16198;DHT22;8206;51.440;6.914;2022-11-20T12:15:13;5.70;1.00
16198;DHT22;8206;51.440;6.914;2022-11-20T12:17:42;5.60;1.00
16198;DHT22;8206;51.440;6.914;2022-11-20T12:20:20;5.40;1.00
16198;DHT22;8206;51.440;6.914;2022-11-20T12:22:53;5.30;1.00
16198;DHT22;8206;51.440;6.914;2022-11-20T12:25:24;5.20;1.00
16198;DHT22;8206;51.440;6.914;2022-11-20T12:28:29;5.10;1.00
16198;DHT22;8206;51.440;6.914;2022-11-20T12:31:18;5.20;1.00
16198;DHT22;8206;51.440;6.914;2022-11-20T12:34:08;5.10;1.00
16198;DHT22;8206;51.440;6.914;2022-11-20T12:36:47;5.20;1.00
16198;DHT22;8206;51.440;6.914;2022-11-20T12:39:33;5.40;1.00
16198;DHT22;8206;51.440;6.914;2022-11-20T12:42:22;5.40;1.00
16198;DHT22;8206;51.440;6.914;2022-11-20T12:45:20;5.50;1.00
16198;DHT22;8206;51.440;6.914;2022-11-20T12:48:20;5.50;1.00
16198;DHT22;8206;51.440;6.914;2022-11-20T12:51:02;5.50;1.00
16198;DHT22;8206;51.440;6.914;2022-11-20T12:53:39;5.60;1.00
16198;DHT22;8206;51.440;6.914;2022-11-20T12:56:16;5.60;1.00
16198;DHT22;8206;51.440;6.914;2022-11-20T12:58:54;5.50;1.00
16198;DHT22;8206;51.440;6.914;2022-11-20T13:01:34;5.40;1.00
16198;DHT22;8206;51.440;6.914;2022-11-20T13:04:16;5.50;1.00
16198;DHT22;8206;51.440;6.914;2022-11-20T13:06:45;5.50;1.00
16198;DHT22;8206;51.440;6.914;2022-11-20T13:09:16;5.60;1.00
16198;DHT22;8206;51.440;6.914;2022-11-20T13:11:47;5.60;1.00
16198;DHT22;8206;51.440;6.914;2022-11-20T13:14:29;5.60;1.00
16198;DHT22;8206;51.440;6.914;2022-11-20T13:17:00;5.70;1.00
16198;DHT22;8206;51.440;6.914;2022-11-20T13:19:31;5.70;1.00
16198;DHT22;8206;51.440;6.914;2022-11-20T13:21:58;5.70;1.00
16198;DHT22;8206;51.440;6.914;2022-11-20T13:24:30;5.70;1.00
16198;DHT22;8206;51.440;6.914;2022-11-20T13:29:47;5.60;1.00
16198;DHT22;8206;51.440;6.914;2022-11-20T13:32:24;5.50;1.00
16198;DHT22;8206;51.440;6.914;2022-11-20T13:34:54;5.40;1.00
16198;DHT22;8206;51.440;6.914;2022-11-20T13:37:27;5.40;1.00
16198;DHT22;8206;51.440;6.914;2022-11-20T13:40:05;5.40;1.00
16198;DHT22;8206;51.440;6.914;2022-11-20T13:42:35;5.50;1.00
16198;DHT22;8206;51.440;6.914;2022-11-20T13:45:09;5.50;1.00
16198;DHT22;8206;51.440;6.914;2022-11-20T13:47:36;5.50;1.00
16198;DHT22;8206;51.440;6.914;2022-11-20T13:50:04;5.60;1.00
16198;DHT22;8206;51.440;6.914;2022-11-20T13:52:42;5.60;1.00
16198;DHT22;8206;51.440;6.914;2022-11-20T13:55:21;5.60;1.00
16198;DHT22;8206;51.440;6.914;2022-11-20T13:58:04;5.40;1.00
16198;DHT22;8206;51.440;6.914;2022-11-20T14:00:33;5.40;1.00
16198;DHT22;8206;51.440;6.914;2022-11-20T14:03:16;5.40;1.00
16198;DHT22;8206;51.440;6.914;2022-11-20T14:05:50;5.40;1.00
16198;DHT22;8206;51.440;6.914;2022-11-20T14:08:25;5.50;1.00
16198;DHT22;8206;51.440;6.914;2022-11-20T14:11:05;5.40;1.00
16198;DHT22;8206;51.440;6.914;2022-11-20T14:13:32;5.40;1.00
16198;DHT22;8206;51.440;6.914;2022-11-20T14:15:59;5.40;1.00
16198;DHT22;8206;51.440;6.914;2022-11-20T14:18:26;5.40;1.00
16198;DHT22;8206;51.440;6.914;2022-11-20T14:20:53;5.30;1.00
16198;DHT22;8206;51.440;6.914;2022-11-20T14:23:25;5.30;1.00
16198;DHT22;8206;51.440;6.914;2022-11-20T14:25:52;5.30;1.00
16198;DHT22;8206;51.440;6.914;2022-11-20T14:28:25;5.30;1.00
16198;DHT22;8206;51.440;6.914;2022-11-20T14:30:52;5.30;1.00
16198;DHT22;8206;51.440;6.914;2022-11-20T14:33:20;5.30;1.00
16198;DHT22;8206;51.440;6.914;2022-11-20T14:35:51;5.30;1.00
16198;DHT22;8206;51.440;6.914;2022-11-20T14:38:22;5.30;1.00
16198;DHT22;8206;51.440;6.914;2022-11-20T14:40:50;5.30;1.00
16198;DHT22;8206;51.440;6.914;2022-11-20T14:43:21;5.30;1.00
16198;DHT22;8206;51.440;6.914;2022-11-20T14:45:55;5.30;1.00
16198;DHT22;8206;51.440;6.914;2022-11-20T14:48:26;5.40;1.00
16198;DHT22;8206;51.440;6.914;2022-11-20T14:50:54;5.40;1.00
16198;DHT22;8206;51.440;6.914;2022-11-20T14:53:22;5.30;1.00
16198;DHT22;8206;51.440;6.914;2022-11-20T14:55:56;5.30;1.00
16198;DHT22;8206;51.440;6.914;2022-11-20T14:58:27;5.20;1.00
16198;DHT22;8206;51.440;6.914;2022-11-20T15:00:55;5.20;1.00
16198;DHT22;8206;51.440;6.914;2022-11-20T15:03:22;5.10;1.00
16198;DHT22;8206;51.440;6.914;2022-11-20T15:05:50;5.10;1.00
16198;DHT22;8206;51.440;6.914;2022-11-20T15:08:18;5.00;1.00
16198;DHT22;8206;51.440;6.914;2022-11-20T15:10:46;5.10;1.00
16198;DHT22;8206;51.440;6.914;2022-11-20T15:13:16;5.10;1.00
16198;DHT22;8206;51.440;6.914;2022-11-20T15:15:48;5.00;1.00
16198;DHT22;8206;51.440;6.914;2022-11-20T15:18:16;5.00;1.00
16198;DHT22;8206;51.440;6.914;2022-11-20T15:20:44;5.00;1.00
16198;DHT22;8206;51.440;6.914;2022-11-20T15:23:13;5.00;1.00
16198;DHT22;8206;51.440;6.914;2022-11-20T15:25:40;5.00;1.00
16198;DHT22;8206;51.440;6.914;2022-11-20T15:28:14;5.00;1.00
16198;DHT22;8206;51.440;6.914;2022-11-20T15:30:42;4.90;1.00
16198;DHT22;8206;51.440;6.914;2022-11-20T15:33:11;4.90;1.00
16198;DHT22;8206;51.440;6.914;2022-11-20T15:35:38;4.90;1.00
16198;DHT22;8206;51.440;6.914;2022-11-20T15:38:04;4.90;1.00
16198;DHT22;8206;51.440;6.914;2022-11-20T15:40:32;4.80;1.00
16198;DHT22;8206;51.440;6.914;2022-11-20T15:42:58;4.80;1.00
16198;DHT22;8206;51.440;6.914;2022-11-20T15:45:36;4.80;1.00
16198;DHT22;8206;51.440;6.914;2022-11-20T15:48:07;4.80;1.00
16198;DHT22;8206;51.440;6.914;2022-11-20T15:50:40;4.80;1.00
16198;DHT22;8206;51.440;6.914;2022-11-20T15:53:09;4.80;1.00
16198;DHT22;8206;51.440;6.914;2022-11-20T15:55:36;4.80;1.00
16198;DHT22;8206;51.440;6.914;2022-11-20T15:58:03;4.80;1.00
16198;DHT22;8206;51.440;6.914;2022-11-20T16:00:30;4.80;1.00
16198;DHT22;8206;51.440;6.914;2022-11-20T16:02:57;4.80;1.00
16198;DHT22;8206;51.440;6.914;2022-11-20T16:05:23;4.80;1.00
16198;DHT22;8206;51.440;6.914;2022-11-20T16:07:52;4.80;1.00
16198;DHT22;8206;51.440;6.914;2022-11-20T16:10:19;4.80;1.00
16198;DHT22;8206;51.440;6.914;2022-11-20T16:12:46;4.80;1.00
16198;DHT22;8206;51.440;6.914;2022-11-20T16:15:30;4.80;1.00
16198;DHT22;8206;51.440;6.914;2022-11-20T16:18:14;4.80;1.00
16198;DHT22;8206;51.440;6.914;2022-11-20T16:20:42;4.90;1.00
16198;DHT22;8206;51.440;6.914;2022-11-20T16:23:10;4.90;1.00
16198;DHT22;8206;51.440;6.914;2022-11-20T16:25:36;5.00;1.00
16198;DHT22;8206;51.440;6.914;2022-11-20T16:28:04;5.00;1.00
16198;DHT22;8206;51.440;6.914;2022-11-20T16:30:31;5.00;1.00
16198;DHT22;8206;51.440;6.914;2022-11-20T16:32:58;5.00;1.00
16198;DHT22;8206;51.440;6.914;2022-11-20T16:35:26;5.00;1.00
16198;DHT22;8206;51.440;6.914;2022-11-20T16:37:53;5.00;1.00
16198;DHT22;8206;51.440;6.914;2022-11-20T16:40:21;5.00;1.00
16198;DHT22;8206;51.440;6.914;2022-11-20T16:42:48;5.00;1.00